createdAt,value
2023-11-12T00:01:01.424Z,64.77
2023-11-12T00:03:49.951Z,64.49
2023-11-12T00:06:17.231Z,64.57
2023-11-12T00:08:44.771Z,64.43
2023-11-12T00:11:12.791Z,64.66
2023-11-12T00:13:40.339Z,64.61
2023-11-12T00:16:07.684Z,64.49
2023-11-12T00:18:35.344Z,64.41
2023-11-12T00:21:02.578Z,64.52
2023-11-12T00:23:30.666Z,64.48
2023-11-12T00:25:57.874Z,64.57
2023-11-12T00:28:25.287Z,64.42
2023-11-12T00:30:52.623Z,64.48
2023-11-12T00:33:21.360Z,64.47
2023-11-12T00:35:48.758Z,64.50
2023-11-12T00:38:16.158Z,64.30
2023-11-12T00:40:43.344Z,64.55
2023-11-12T00:43:11.782Z,64.28
2023-11-12T00:45:40.374Z,64.32
2023-11-12T00:48:09.273Z,64.34
2023-11-12T00:50:36.460Z,64.28
2023-11-12T00:53:06.326Z,64.31
2023-11-12T00:55:33.573Z,64.38
2023-11-12T00:58:01.374Z,64.14
2023-11-12T01:00:28.518Z,64.25
2023-11-12T01:02:56.183Z,64.27
2023-11-12T01:05:23.466Z,64.19
2023-11-12T01:07:51.093Z,64.15
2023-11-12T01:10:18.221Z,64.29
2023-11-12T01:12:45.678Z,64.10
2023-11-12T01:15:16.710Z,64.09
2023-11-12T01:17:45.749Z,64.27
2023-11-12T01:20:18.241Z,64.33
2023-11-12T01:22:45.847Z,64.21
2023-11-12T01:25:13.741Z,63.91
2023-11-12T01:27:41.279Z,64.24
2023-11-12T01:30:08.789Z,64.01
2023-11-12T01:32:36.343Z,63.98
2023-11-12T01:35:04.475Z,64.17
2023-11-12T01:37:32.089Z,64.18
2023-11-12T01:39:59.264Z,63.99
2023-11-12T01:42:27.024Z,63.96
2023-11-12T01:44:54.330Z,64.08
2023-11-12T01:47:22.498Z,63.93
2023-11-12T01:49:49.705Z,64.01
2023-11-12T01:52:18.513Z,63.85
2023-11-12T01:54:45.793Z,63.98
2023-11-12T01:57:13.449Z,63.87
2023-11-12T01:59:41.008Z,63.88
2023-11-12T02:02:08.548Z,63.86
2023-11-12T02:04:36.740Z,63.92
2023-11-12T02:07:04.866Z,63.72
2023-11-12T02:09:32.284Z,63.90
2023-11-12T02:11:59.942Z,63.96
2023-11-12T02:14:27.232Z,63.96
2023-11-12T02:16:56.837Z,63.66
2023-11-12T02:19:27.896Z,63.93
2023-11-12T02:21:55.923Z,63.91
2023-11-12T02:24:25.042Z,64.02
2023-11-12T02:26:52.990Z,63.86
2023-11-12T02:29:20.280Z,63.89
2023-11-12T02:31:47.805Z,63.72
2023-11-12T02:34:15.036Z,63.86
2023-11-12T02:36:42.448Z,63.75
2023-11-12T02:39:10.687Z,63.93
2023-11-12T02:41:39.085Z,63.65
2023-11-12T02:44:09.044Z,63.74
2023-11-12T02:46:36.788Z,63.74
2023-11-12T02:49:23.536Z,63.88
2023-11-12T02:51:50.930Z,63.98
2023-11-12T02:54:18.045Z,63.82
2023-11-12T02:56:45.562Z,63.66
2023-11-12T02:59:12.697Z,63.85
2023-11-12T03:01:40.366Z,63.70
2023-11-12T03:04:07.696Z,63.79
2023-11-12T03:06:35.057Z,63.77
2023-11-12T03:09:02.666Z,63.75
2023-11-12T03:11:30.027Z,63.69
2023-11-12T03:13:57.199Z,63.53
2023-11-12T03:16:24.665Z,63.55
2023-11-12T03:18:51.896Z,63.78
2023-11-12T03:21:19.519Z,63.72
2023-11-12T03:23:46.614Z,63.58
2023-11-12T03:26:13.964Z,63.67
2023-11-12T03:28:41.429Z,63.46
2023-11-12T03:31:08.842Z,63.63
2023-11-12T03:33:36.623Z,63.44
2023-11-12T03:36:04.561Z,63.44
2023-11-12T03:38:32.361Z,63.47
2023-11-12T03:40:59.796Z,63.51
2023-11-12T03:43:26.874Z,63.60
2023-11-12T03:45:54.761Z,63.38
2023-11-12T03:48:22.513Z,63.53
2023-11-12T03:50:50.001Z,63.50
2023-11-12T03:53:17.155Z,63.68
2023-11-12T03:55:45.236Z,63.54
2023-11-12T03:58:12.298Z,63.56
2023-11-12T04:00:40.024Z,63.52
2023-11-12T04:03:07.284Z,63.34
2023-11-12T04:05:34.920Z,63.47
2023-11-12T04:08:01.946Z,63.63
2023-11-12T04:12:58.520Z,63.52
2023-11-12T04:15:26.285Z,63.44
2023-11-12T04:17:53.470Z,63.47
2023-11-12T04:20:20.890Z,63.54
2023-11-12T04:22:47.992Z,63.45
2023-11-12T04:25:15.386Z,63.40
2023-11-12T04:27:42.575Z,63.51
2023-11-12T04:30:10.646Z,63.32
2023-11-12T04:32:39.763Z,63.42
2023-11-12T04:35:08.197Z,63.38
2023-11-12T04:37:35.513Z,63.47
2023-11-12T04:40:04.911Z,63.52
2023-11-12T04:42:31.998Z,63.40
2023-11-12T04:44:59.516Z,63.29
2023-11-12T04:47:26.662Z,63.26
2023-11-12T04:49:54.136Z,63.36
2023-11-12T04:52:21.763Z,63.16
2023-11-12T04:54:51.454Z,63.27
2023-11-12T04:57:19.470Z,63.40
2023-11-12T04:59:47.048Z,63.31
2023-11-12T05:02:14.663Z,63.22
2023-11-12T05:04:42.740Z,63.24
2023-11-12T05:07:09.993Z,63.20
2023-11-12T05:09:37.586Z,63.30
2023-11-12T05:12:04.865Z,63.43
2023-11-12T05:14:32.299Z,63.43
2023-11-12T05:16:59.475Z,63.49
2023-11-12T05:19:26.852Z,63.39
2023-11-12T05:21:53.878Z,63.32
2023-11-12T05:24:21.232Z,63.39
2023-11-12T05:26:48.304Z,63.21
2023-11-12T05:29:16.016Z,63.26
2023-11-12T05:31:43.162Z,63.19
2023-11-12T05:34:11.251Z,63.29
2023-11-12T05:36:39.724Z,63.28
2023-11-12T05:39:07.572Z,63.37
2023-11-12T05:41:34.603Z,63.52
2023-11-12T05:44:02.005Z,63.55
2023-11-12T05:46:29.140Z,63.43
2023-11-12T05:48:56.606Z,63.44
2023-11-12T05:51:23.868Z,63.61
2023-11-12T05:53:51.271Z,63.60
2023-11-12T05:56:19.403Z,63.40
2023-11-12T05:58:46.691Z,63.38
2023-11-12T06:01:13.888Z,63.27
2023-11-12T06:03:41.362Z,63.42
2023-11-12T06:06:08.755Z,63.44
2023-11-12T06:08:38.734Z,63.29
2023-11-12T06:11:07.287Z,63.57
2023-11-12T06:13:34.809Z,63.50
2023-11-12T06:16:02.159Z,63.46
2023-11-12T06:18:29.543Z,63.75
2023-11-12T06:20:56.782Z,63.78
2023-11-12T06:23:24.261Z,63.82
2023-11-12T06:25:51.510Z,63.69
2023-11-12T06:28:18.939Z,63.84
2023-11-12T06:30:46.178Z,63.62
2023-11-12T06:33:13.648Z,63.84
2023-11-12T06:35:41.568Z,63.91
2023-11-12T06:38:09.202Z,63.55
2023-11-12T06:40:36.289Z,63.83
2023-11-12T06:43:03.629Z,63.70
2023-11-12T06:45:30.749Z,63.71
2023-11-12T06:47:58.269Z,63.56
2023-11-12T06:50:25.574Z,63.65
2023-11-12T06:52:53.032Z,63.75
2023-11-12T06:55:21.620Z,63.79
2023-11-12T06:57:49.068Z,63.65
2023-11-12T07:00:18.751Z,63.63
2023-11-12T07:02:46.820Z,63.48
2023-11-12T07:05:14.026Z,63.83
2023-11-12T07:07:41.474Z,63.87
2023-11-12T07:10:08.956Z,63.74
2023-11-12T07:12:36.560Z,63.70
2023-11-12T07:15:05.644Z,63.80
2023-11-12T07:17:35.354Z,63.62
2023-11-12T07:20:03.791Z,63.66
2023-11-12T07:22:32.598Z,63.74
2023-11-12T07:25:01.458Z,63.85
2023-11-12T07:27:29.168Z,63.81
2023-11-12T07:29:56.271Z,63.84
2023-11-12T07:32:23.822Z,63.72
2023-11-12T07:34:50.950Z,63.73
2023-11-12T07:37:18.322Z,63.83
2023-11-12T07:39:45.690Z,64.17
2023-11-12T07:42:13.268Z,64.13
2023-11-12T07:44:40.885Z,64.18
2023-11-12T07:47:08.330Z,64.20
2023-11-12T07:49:35.688Z,64.22
2023-11-12T07:52:03.300Z,64.29
2023-11-12T07:54:30.336Z,64.49
2023-11-12T07:56:59.139Z,64.52
2023-11-12T07:59:26.268Z,64.54
2023-11-12T08:01:53.696Z,64.82
2023-11-12T08:04:20.872Z,64.53
2023-11-12T08:06:49.726Z,64.33
2023-11-12T08:09:17.007Z,64.04
2023-11-12T08:11:44.507Z,63.83
2023-11-12T08:14:12.126Z,63.62
2023-11-12T08:16:39.525Z,63.26
2023-11-12T08:19:07.246Z,62.96
2023-11-12T08:21:34.556Z,62.74
2023-11-12T08:24:02.069Z,62.74
2023-11-12T08:26:30.600Z,62.62
2023-11-12T08:28:58.646Z,62.75
2023-11-12T08:31:27.039Z,62.83
2023-11-12T08:33:54.795Z,62.75
2023-11-12T08:36:22.023Z,62.66
2023-11-12T08:38:49.499Z,62.98
2023-11-12T08:41:16.768Z,63.35
2023-11-12T08:43:47.016Z,63.66
2023-11-12T08:46:16.383Z,63.68
2023-11-12T08:48:44.339Z,63.66
2023-11-12T08:51:12.286Z,63.66
2023-11-12T08:53:43.162Z,63.87
2023-11-12T08:56:10.435Z,63.85
2023-11-12T08:58:37.848Z,63.88
2023-11-12T09:01:05.604Z,63.98
2023-11-12T09:03:33.259Z,64.16
2023-11-12T09:06:00.721Z,64.23
2023-11-12T09:08:28.148Z,64.52
2023-11-12T09:10:55.248Z,64.67
2023-11-12T09:13:22.757Z,64.68
2023-11-12T09:15:50.869Z,64.81
2023-11-12T09:18:20.520Z,64.85
2023-11-12T09:20:47.993Z,65.01
2023-11-12T09:23:15.450Z,65.00
2023-11-12T09:25:42.566Z,65.20
2023-11-12T09:28:10.844Z,65.27
2023-11-12T09:30:49.342Z,65.30
2023-11-12T09:33:25.098Z,65.46
2023-11-12T09:35:52.211Z,65.42
2023-11-12T09:38:19.544Z,65.59
2023-11-12T09:40:46.766Z,65.64
2023-11-12T09:43:15.375Z,65.59
2023-11-12T09:45:50.098Z,65.72
2023-11-12T09:48:30.051Z,65.74
2023-11-12T09:50:58.359Z,65.87
2023-11-12T09:53:27.961Z,65.89
2023-11-12T09:55:56.005Z,66.01
2023-11-12T09:58:23.360Z,66.05
2023-11-12T10:00:50.787Z,66.00
2023-11-12T10:03:18.327Z,66.12
2023-11-12T10:05:46.388Z,66.13
2023-11-12T10:08:13.991Z,66.23
2023-11-12T10:10:42.090Z,66.17
2023-11-12T10:13:10.545Z,66.21
2023-11-12T10:15:37.861Z,66.30
2023-11-12T10:18:05.720Z,66.16
2023-11-12T10:20:39.965Z,66.39
2023-11-12T10:23:30.418Z,66.26
2023-11-12T10:26:00.639Z,66.35
2023-11-12T10:28:33.882Z,66.33
2023-11-12T10:31:02.053Z,66.33
2023-11-12T10:33:29.627Z,66.41
2023-11-12T10:35:57.149Z,66.28
2023-11-12T10:38:24.816Z,66.54
2023-11-12T10:41:05.722Z,66.47
2023-11-12T10:43:34.253Z,66.36
2023-11-12T10:46:02.330Z,66.32
2023-11-12T10:48:49.468Z,66.49
2023-11-12T10:51:17.444Z,66.53
2023-11-12T10:53:45.914Z,66.59
2023-11-12T10:56:13.136Z,66.51
2023-11-12T10:58:41.339Z,66.41
2023-11-12T11:01:09.721Z,66.43
2023-11-12T11:03:37.615Z,66.51
2023-11-12T11:06:08.660Z,66.14
2023-11-12T11:08:36.003Z,66.39
2023-11-12T11:11:08.384Z,66.38
2023-11-12T11:13:38.321Z,66.41
2023-11-12T11:16:06.217Z,66.33
2023-11-12T11:18:37.125Z,66.29
2023-11-12T11:21:04.643Z,66.32
2023-11-12T11:23:45.932Z,66.36
2023-11-12T11:26:28.851Z,66.44
2023-11-12T11:29:12.083Z,66.44
2023-11-12T11:31:39.120Z,66.21
2023-11-12T11:34:08.418Z,66.37
2023-11-12T11:36:35.951Z,66.29
2023-11-12T11:39:03.829Z,66.28
2023-11-12T11:41:37.103Z,66.20
2023-11-12T11:44:23.759Z,66.33
2023-11-12T11:47:06.588Z,66.22
2023-11-12T11:49:34.341Z,66.32
2023-11-12T11:52:02.570Z,66.21
2023-11-12T11:54:30.785Z,66.17
2023-11-12T11:56:58.627Z,66.12
2023-11-12T11:59:26.303Z,66.25
2023-11-12T12:01:58.772Z,66.13
2023-11-12T12:04:26.522Z,66.26
2023-11-12T12:06:54.100Z,66.17
2023-11-12T12:09:21.804Z,66.08
2023-11-12T12:11:52.659Z,66.24
2023-11-12T12:14:21.720Z,66.13
2023-11-12T12:16:49.488Z,66.12
2023-11-12T12:19:18.952Z,66.17
2023-11-12T12:21:50.456Z,66.10
2023-11-12T12:24:18.643Z,66.15
2023-11-12T12:26:45.808Z,66.12
2023-11-12T12:29:16.763Z,66.14
2023-11-12T12:31:45.888Z,66.24
2023-11-12T12:34:17.257Z,66.02
2023-11-12T12:37:13.548Z,66.21
2023-11-12T12:40:18.242Z,66.12
2023-11-12T12:42:45.812Z,65.99
2023-11-12T12:45:17.497Z,65.96
2023-11-12T12:47:45.472Z,65.97
2023-11-12T12:50:34.016Z,65.92
2023-11-12T12:53:13.772Z,66.02
2023-11-12T12:55:45.648Z,66.03
2023-11-12T12:58:13.249Z,66.00
2023-11-12T13:00:41.524Z,65.95
2023-11-12T13:03:22.269Z,65.99
2023-11-12T13:05:51.185Z,66.09
2023-11-12T13:08:20.540Z,66.03
2023-11-12T13:10:50.296Z,65.91
2023-11-12T13:13:18.411Z,65.91
2023-11-12T13:15:48.587Z,66.02
2023-11-12T13:18:15.739Z,65.85
2023-11-12T13:20:45.845Z,65.95
2023-11-12T13:23:13.034Z,65.66
2023-11-12T13:25:43.085Z,65.74
2023-11-12T13:28:12.999Z,65.77
2023-11-12T13:30:40.735Z,65.78
2023-11-12T13:33:08.965Z,65.56
2023-11-12T13:35:37.906Z,65.52
2023-11-12T13:38:05.799Z,65.67
2023-11-12T13:40:34.364Z,65.61
2023-11-12T13:43:01.710Z,65.57
2023-11-12T13:45:29.257Z,65.73
2023-11-12T13:47:56.510Z,65.59
2023-11-12T13:50:29.292Z,65.43
2023-11-12T13:52:59.679Z,65.56
2023-11-12T13:55:30.286Z,65.51
2023-11-12T13:57:59.340Z,65.63
2023-11-12T14:00:31.956Z,65.56
2023-11-12T14:03:02.121Z,65.53
2023-11-12T14:05:30.086Z,65.41
2023-11-12T14:07:57.377Z,65.36
2023-11-12T14:10:26.348Z,65.27
2023-11-12T14:12:54.267Z,65.38
2023-11-12T14:15:23.137Z,65.36
2023-11-12T14:17:50.608Z,65.18
2023-11-12T14:20:26.717Z,65.37
2023-11-12T14:22:56.164Z,65.30
2023-11-12T14:25:24.662Z,65.24
2023-11-12T14:27:53.598Z,65.23
2023-11-12T14:30:21.705Z,65.18
2023-11-12T14:32:49.266Z,65.34
2023-11-12T14:35:19.646Z,65.22
2023-11-12T14:37:48.594Z,65.31
2023-11-12T14:40:17.521Z,65.05
2023-11-12T14:42:45.076Z,65.33
2023-11-12T14:45:21.360Z,65.16
2023-11-12T14:47:56.111Z,65.09
2023-11-12T14:50:23.712Z,65.13
2023-11-12T14:52:52.938Z,65.03
2023-11-12T14:55:25.391Z,65.06
2023-11-12T14:57:58.253Z,64.94
2023-11-12T15:00:30.348Z,64.92
2023-11-12T15:02:58.634Z,64.96
2023-11-12T15:05:26.537Z,65.02
2023-11-12T15:07:53.703Z,65.04
2023-11-12T15:10:24.265Z,64.97
2023-11-12T15:12:51.714Z,64.90
2023-11-12T15:15:21.056Z,65.00
2023-11-12T15:17:48.734Z,65.03
2023-11-12T15:20:16.151Z,65.06
2023-11-12T15:22:45.200Z,64.93
2023-11-12T15:25:14.888Z,64.94
2023-11-12T15:27:50.055Z,64.84
2023-11-12T15:30:18.794Z,64.71
2023-11-12T15:32:46.413Z,64.94
2023-11-12T15:35:14.790Z,64.76
2023-11-12T15:37:42.647Z,64.75
2023-11-12T15:40:20.819Z,64.73
2023-11-12T15:42:50.215Z,64.66
2023-11-12T15:45:18.731Z,64.93
2023-11-12T15:47:46.520Z,64.81
2023-11-12T15:50:14.754Z,64.64
2023-11-12T15:52:42.292Z,64.69
2023-11-12T15:55:10.246Z,64.87
2023-11-12T15:57:38.068Z,64.80
2023-11-12T16:00:09.188Z,64.66
2023-11-12T16:02:36.804Z,64.63
2023-11-12T16:05:04.722Z,64.58
2023-11-12T16:07:32.367Z,64.68
2023-11-12T16:09:59.480Z,64.87
2023-11-12T16:12:27.774Z,64.82
2023-11-12T16:14:54.867Z,64.69
2023-11-12T16:17:22.292Z,64.54
2023-11-12T16:19:49.433Z,64.64
2023-11-12T16:22:17.608Z,64.59
2023-11-12T16:24:46.435Z,64.59
2023-11-12T16:27:13.859Z,64.67
2023-11-12T16:29:41.079Z,64.58
2023-11-12T16:32:12.305Z,64.73
2023-11-12T16:34:39.552Z,64.54
2023-11-12T16:37:07.154Z,64.61
2023-11-12T16:39:41.899Z,64.63
2023-11-12T16:42:10.262Z,64.50
2023-11-12T16:44:37.329Z,64.52
2023-11-12T16:47:05.506Z,64.49
2023-11-12T16:49:32.588Z,64.46
2023-11-12T16:52:00.019Z,64.52
2023-11-12T16:54:27.198Z,64.22
2023-11-12T16:56:54.597Z,64.54
2023-11-12T16:59:23.380Z,64.51
2023-11-12T17:01:50.827Z,64.61
2023-11-12T17:04:18.075Z,64.46
2023-11-12T17:06:46.848Z,64.56
2023-11-12T17:09:14.355Z,64.48
2023-11-12T17:11:44.879Z,64.57
2023-11-12T17:14:12.501Z,64.46
2023-11-12T17:16:44.055Z,64.41
2023-11-12T17:19:12.151Z,64.58
2023-11-12T17:21:39.812Z,64.32
2023-11-12T17:24:09.389Z,64.39
2023-11-12T17:26:36.873Z,64.48
2023-11-12T17:29:04.129Z,64.38
2023-11-12T17:31:31.443Z,64.36
2023-11-12T17:33:58.807Z,64.36
2023-11-12T17:36:29.139Z,64.37
2023-11-12T17:38:56.294Z,64.34
2023-11-12T17:41:24.153Z,64.31
2023-11-12T17:43:51.827Z,64.36
2023-11-12T17:46:20.038Z,64.39
2023-11-12T17:48:51.696Z,64.55
2023-11-12T17:51:20.378Z,64.63
2023-11-12T17:53:47.813Z,64.47
2023-11-12T17:56:16.163Z,64.41
2023-11-12T17:58:43.382Z,64.82
2023-11-12T18:01:10.958Z,64.69
2023-11-12T18:03:39.259Z,64.60
2023-11-12T18:06:07.392Z,64.75
2023-11-12T18:08:34.757Z,64.81
2023-11-12T18:11:02.253Z,64.89
2023-11-12T18:13:31.217Z,64.73
2023-11-12T18:15:59.779Z,64.82
2023-11-12T18:18:29.038Z,64.85
2023-11-12T18:20:56.425Z,64.85
2023-11-12T18:23:23.798Z,64.75
2023-11-12T18:25:51.484Z,64.68
2023-11-12T18:28:20.975Z,64.85
2023-11-12T18:30:49.771Z,64.72
2023-11-12T18:33:17.448Z,64.79
2023-11-12T18:35:45.638Z,64.85
2023-11-12T18:38:12.995Z,64.77
2023-11-12T18:40:43.383Z,64.86
2023-11-12T18:43:12.187Z,64.86
2023-11-12T18:45:39.841Z,64.77
2023-11-12T18:48:09.129Z,64.75
2023-11-12T18:50:39.792Z,64.94
2023-11-12T18:53:08.004Z,64.84
2023-11-12T18:55:35.377Z,65.01
2023-11-12T18:58:02.716Z,65.10
2023-11-12T19:00:30.957Z,65.11
2023-11-12T19:02:58.256Z,64.84
2023-11-12T19:05:25.749Z,64.84
2023-11-12T19:07:53.013Z,64.98
2023-11-12T19:10:23.838Z,65.07
2023-11-12T19:12:51.543Z,65.25
2023-11-12T19:15:19.178Z,65.27
2023-11-12T19:17:46.762Z,65.04
2023-11-12T19:20:15.287Z,65.25
2023-11-12T19:22:45.822Z,65.28
2023-11-12T19:25:16.369Z,65.19
2023-11-12T19:27:47.042Z,65.16
2023-11-12T19:30:16.378Z,65.65
2023-11-12T19:32:45.174Z,65.21
2023-11-12T19:35:16.714Z,65.17
2023-11-12T19:37:45.576Z,65.17
2023-11-12T19:40:17.881Z,64.95
2023-11-12T20:00:59.189Z,65.18
2023-11-12T20:03:27.003Z,65.12
2023-11-12T20:05:54.453Z,65.13
2023-11-12T20:08:23.533Z,65.19
2023-11-12T20:10:51.023Z,65.15
2023-11-12T20:13:18.512Z,65.10
2023-11-12T20:15:46.043Z,65.10
2023-11-12T20:18:13.805Z,64.96
2023-11-12T20:20:43.178Z,64.86
2023-11-12T20:23:12.026Z,64.94
2023-11-12T20:25:39.588Z,64.92
2023-11-12T20:28:12.484Z,65.12
2023-11-12T20:30:43.122Z,64.87
2023-11-12T20:33:14.214Z,64.87
2023-11-12T20:35:41.641Z,64.81
2023-11-12T20:38:12.837Z,64.85
2023-11-12T20:40:40.686Z,64.94
2023-11-12T20:43:11.922Z,64.74
2023-11-12T20:45:42.763Z,64.86
2023-11-12T20:48:10.811Z,64.76
2023-11-12T20:50:40.586Z,64.79
2023-11-12T20:53:11.663Z,64.90
2023-11-12T20:55:57.538Z,64.64
2023-11-12T20:58:43.638Z,64.81
2023-11-12T21:01:34.686Z,64.71
2023-11-12T21:04:22.627Z,64.82
2023-11-12T21:07:10.298Z,64.59
2023-11-12T21:09:59.416Z,64.67
2023-11-12T21:12:47.968Z,64.70
2023-11-12T21:15:36.655Z,64.69
2023-11-12T21:18:04.237Z,64.57
2023-11-12T21:20:33.864Z,64.50
2023-11-12T21:23:01.164Z,64.62
2023-11-12T21:25:28.688Z,64.58
2023-11-12T21:27:55.934Z,64.49
2023-11-12T21:30:26.919Z,64.29
2023-11-12T21:32:58.952Z,64.46
2023-11-12T21:35:27.888Z,64.36
2023-11-12T21:37:55.148Z,64.31
2023-11-12T21:40:22.785Z,64.40
2023-11-12T21:42:50.210Z,64.46
2023-11-12T21:45:18.117Z,64.42
2023-11-12T21:47:46.102Z,64.52
2023-11-12T21:50:16.988Z,64.41
2023-11-12T21:52:44.764Z,64.27
2023-11-12T21:55:12.824Z,64.34
2023-11-12T21:57:40.130Z,64.28
2023-11-12T22:00:12.635Z,64.37
2023-11-12T22:02:41.323Z,64.40
2023-11-12T22:05:10.914Z,64.34
2023-11-12T22:07:38.830Z,64.25
2023-11-12T22:10:07.015Z,64.33
2023-11-12T22:12:35.701Z,64.43
2023-11-12T22:15:04.387Z,64.38
2023-11-12T22:17:32.985Z,64.20
2023-11-12T22:20:00.495Z,64.33
2023-11-12T22:22:27.815Z,64.30
2023-11-12T22:25:05.127Z,64.17
2023-11-12T22:27:45.735Z,64.22
2023-11-12T22:30:14.174Z,64.28
2023-11-12T22:32:41.759Z,64.23
2023-11-12T22:35:12.671Z,64.16
2023-11-12T22:37:40.710Z,64.17
2023-11-12T22:40:08.888Z,64.18
2023-11-12T22:42:39.044Z,64.36
2023-11-12T22:45:10.433Z,64.15
2023-11-12T22:47:39.075Z,64.30
2023-11-12T22:50:08.364Z,64.10
2023-11-12T22:52:36.601Z,64.21
2023-11-12T22:55:04.627Z,64.29
2023-11-12T22:57:33.671Z,64.12
2023-11-12T23:00:15.827Z,64.22
2023-11-12T23:02:46.853Z,64.18
2023-11-12T23:05:16.027Z,64.31
2023-11-12T23:07:43.533Z,64.18
2023-11-12T23:10:12.355Z,64.24
2023-11-12T23:12:39.704Z,64.20
2023-11-12T23:15:07.682Z,64.39
2023-11-12T23:17:35.081Z,64.11
2023-11-12T23:20:04.465Z,64.14
2023-11-12T23:22:31.958Z,64.07
2023-11-12T23:24:59.694Z,64.22
2023-11-12T23:27:26.957Z,64.12
2023-11-12T23:29:55.336Z,64.21
2023-11-12T23:32:22.928Z,64.13
2023-11-12T23:34:50.382Z,64.13
2023-11-12T23:37:18.025Z,63.98
2023-11-12T23:39:45.659Z,64.00
2023-11-12T23:42:13.042Z,64.13
2023-11-12T23:44:40.622Z,64.04
2023-11-12T23:47:08.484Z,64.27
2023-11-12T23:49:37.026Z,63.98
2023-11-12T23:52:04.408Z,64.14
2023-11-12T23:54:32.414Z,64.00
2023-11-12T23:56:59.833Z,63.94
2023-11-12T23:59:27.310Z,63.93
